Hlavní strana
METAR-TAF:

METAR-TAF

Letiště :

Bahrajn, Bahrajn

zeměpisná šířka: 26-16N, zeměpisná délka: 050-39E, výška: 2 m

Aktuální stav počasí

Zpráva byla vytvořena před 11 minutami, v 10:30 UTC
Severozápadní vítr 19 kt
Teplota 38°C
Vlhkost vzduchu 42%
Tlak 997 hPa
Viditelnost 10 km a více
Žádná oblačnost pod 1500 m, nevyskytují se cumulonimby.

METAR: OBBI 221030Z 32019KT CAVOK 38/23 Q0997 NOSIG

Čas: 13:41 (10:41 UTC)

Předpověď počasí

Zpráva byla vytvořena před 5 hodinami a 41 minutami, v 05:00 UTC
Předpověď platná od 22 v 06 UTC do 23 v 12 UTC
Severoseverozápadní vítr 18 kt s nárazy do 28 kt
Viditelnost: 8000 m
Změna
od 22 v 15 UTC do 22 v 17 UTC
Severoseverozápadní vítr 12 kt
Změna
od 23 v 03 UTC do 23 v 05 UTC
Severoseverozápadní vítr 18 kt s nárazy do 28 kt

TAF: OBBI 220500Z 2206/2312 33018G28KT 8000 NSC BECMG 2215/2217 33012KT BECMG 2303/2305 33018G28KT

Stav a předpovědi počasí z více než 4 000 letišť (zprávy METAR a TAF).

Červené a žluté tečky na mapě představují dostupné meteorologické stanice.

Když kurzor umístíte na tečku, zobrazí se název stanice.

Pak kliknutím zobrazíte stav a předpověď počasí.

Chcete-li změnit mapu, kliknutím na zelené tlačítko se znaménkem +mapu přiblížíte, kliknutím na zelené tlačítko se znaménkem – mapu oddálíte a kliknutím na zelené šipky přejdete na sousední mapy.


METAR-TAF: